Terminal Aerodrome Forecast
Issued by NWS Austin/San Antonio, TX

Home | Current Version | Previous Version | Text Only | Print | Product List | Glossary On
Versions: 1 2 3 4 5 6 7 8 9 10 11 12 13 14 15 16 17 18
000
FTUS44 KEWX 181200 AAA
TAFDRT
TAF AMD
KDRT 181248Z 1813/1912 10007KT 3SM -RA BR SCT005 BKN011 OVC016
      TEMPO 1813/1815 2SM -RA BR BKN005 OVC015
     FM181500 11008KT P6SM BKN015
     FM181800 14012KT P6SM SCT035 BKN250
     FM190200 11010KT P6SM BKN250
     FM191100 11008KT P6SM BKN015=

USA.gov is the U.S. government's official web portal to all federal, state and local government web resources and services.